createdAt,value
2023-03-05T00:00:02.687Z,54.32
2023-03-05T00:01:02.632Z,54.43
2023-03-05T00:02:03.118Z,54.48
2023-03-05T00:03:02.616Z,55.27
2023-03-05T00:04:02.639Z,57.16
2023-03-05T00:05:02.620Z,55.45
2023-03-05T00:06:02.620Z,54.12
2023-03-05T00:07:02.590Z,56.08
2023-03-05T00:08:02.596Z,54.02
2023-03-05T00:09:02.588Z,53.69
2023-03-05T00:10:02.574Z,53.83
2023-03-05T00:11:02.601Z,56.44
2023-03-05T00:12:02.957Z,54.27
2023-03-05T00:13:02.564Z,55.89
2023-03-05T00:14:02.538Z,54.07
2023-03-05T00:15:02.574Z,54.74
2023-03-05T00:16:02.555Z,57.93
2023-03-05T00:17:02.531Z,53.95
2023-03-05T00:18:02.555Z,53.92
2023-03-05T00:19:02.509Z,54.17
2023-03-05T00:20:02.695Z,53.76
2023-03-05T00:21:02.483Z,53.84
2023-03-05T00:22:02.492Z,54.18
2023-03-05T00:23:02.473Z,55.29
2023-03-05T00:24:02.512Z,53.99
2023-03-05T00:25:02.440Z,54.02
2023-03-05T00:26:02.461Z,54.52
2023-03-05T00:27:02.452Z,54.85
2023-03-05T00:28:02.465Z,54.39
2023-03-05T00:29:02.424Z,55.64
2023-03-05T00:30:02.485Z,53.90
2023-03-05T00:31:02.439Z,54.81
2023-03-05T00:32:02.477Z,54.73
2023-03-05T00:33:02.409Z,55.46
2023-03-05T00:34:02.418Z,54.41
2023-03-05T00:35:02.390Z,54.09
2023-03-05T00:36:02.548Z,55.37
2023-03-05T00:37:02.375Z,53.78
2023-03-05T00:38:02.351Z,54.35
2023-03-05T00:39:02.368Z,54.19
2023-03-05T00:40:02.420Z,54.05
2023-03-05T00:41:02.376Z,53.99
2023-03-05T00:42:02.373Z,54.12
2023-03-05T00:43:02.334Z,53.81
2023-03-05T00:44:02.321Z,54.01
2023-03-05T00:45:02.349Z,54.10
2023-03-05T00:46:02.504Z,53.91
2023-03-05T00:47:02.301Z,53.95
2023-03-05T00:48:02.316Z,54.19
2023-03-05T00:49:03.090Z,53.55
2023-03-05T00:50:02.285Z,53.67
2023-03-05T00:51:02.272Z,54.30
2023-03-05T00:52:02.277Z,56.05
2023-03-05T00:53:02.251Z,54.91
2023-03-05T00:54:02.276Z,54.74
2023-03-05T00:55:02.247Z,54.47
2023-03-05T00:56:02.266Z,54.21
2023-03-05T00:57:02.237Z,53.54
2023-03-05T00:58:02.231Z,53.71
2023-03-05T00:59:02.227Z,53.50
2023-03-05T01:00:02.279Z,53.50
2023-03-05T01:01:02.216Z,54.07
2023-03-05T01:02:02.238Z,54.43
2023-03-05T01:03:02.214Z,54.99
2023-03-05T01:04:02.173Z,54.41
2023-03-05T01:05:02.198Z,55.04
2023-03-05T01:06:02.202Z,55.04
2023-03-05T01:07:02.177Z,54.61
2023-03-05T01:08:02.159Z,54.12
2023-03-05T01:09:02.156Z,54.55
2023-03-05T01:10:02.181Z,54.28
2023-03-05T01:11:02.104Z,54.44
2023-03-05T01:12:02.142Z,54.03
2023-03-05T01:13:02.108Z,55.33
2023-03-05T01:14:02.117Z,55.73
2023-03-05T01:15:02.117Z,53.75
2023-03-05T01:16:02.115Z,53.75
2023-03-05T01:17:02.066Z,53.79
2023-03-05T01:18:02.497Z,56.06
2023-03-05T01:19:02.059Z,54.31
2023-03-05T01:20:16.082Z,53.90
2023-03-05T01:21:02.053Z,55.32
2023-03-05T01:22:02.050Z,54.21
2023-03-05T01:23:02.045Z,53.89
2023-03-05T01:24:02.071Z,54.06
2023-03-05T01:25:01.991Z,53.72
2023-03-05T01:26:02.012Z,53.82
2023-03-05T01:27:02.022Z,53.72
2023-03-05T01:28:02.004Z,55.57
2023-03-05T01:29:01.981Z,55.41
2023-03-05T01:30:02.091Z,54.02
2023-03-05T01:31:02.002Z,55.82
2023-03-05T01:32:02.066Z,53.92
2023-03-05T01:33:02.004Z,53.73
2023-03-05T01:34:02.002Z,53.20
2023-03-05T01:35:01.980Z,53.61
2023-03-05T01:36:02.021Z,53.90
2023-03-05T01:37:01.938Z,56.09
2023-03-05T01:38:01.919Z,53.85
2023-03-05T01:39:01.918Z,53.86
2023-03-05T01:40:01.934Z,53.87
2023-03-05T01:41:01.922Z,54.04
2023-03-05T01:42:01.992Z,53.86
2023-03-05T01:43:01.925Z,54.17
2023-03-05T01:44:01.904Z,54.13
2023-03-05T01:45:01.905Z,53.51
2023-03-05T01:46:01.897Z,54.75
2023-03-05T01:47:01.881Z,55.15
2023-03-05T01:48:01.928Z,53.75
2023-03-05T01:49:01.891Z,54.25
2023-03-05T01:50:01.859Z,54.50
2023-03-05T01:51:01.862Z,53.95
2023-03-05T01:52:01.859Z,54.37
2023-03-05T01:53:01.838Z,54.56
2023-03-05T01:54:01.903Z,53.88
2023-03-05T01:55:01.881Z,54.22
2023-03-05T01:56:01.803Z,54.46
2023-03-05T01:57:01.823Z,54.23
2023-03-05T01:58:01.839Z,54.05
2023-03-05T01:59:01.791Z,55.91
2023-03-05T02:00:01.877Z,54.08
2023-03-05T02:01:01.825Z,55.32
2023-03-05T02:02:01.788Z,55.82
2023-03-05T02:03:01.802Z,54.16
2023-03-05T02:04:01.837Z,54.15
2023-03-05T02:05:01.756Z,54.44
2023-03-05T02:06:01.795Z,54.06
2023-03-05T02:07:01.745Z,54.07
2023-03-05T02:08:01.751Z,54.15
2023-03-05T02:09:01.860Z,54.24
2023-03-05T02:10:01.723Z,54.37
2023-03-05T02:11:01.729Z,54.32
2023-03-05T02:12:01.782Z,54.02
2023-03-05T02:13:01.700Z,54.24
2023-03-05T02:14:01.685Z,54.28
2023-03-05T02:15:01.704Z,54.27
2023-03-05T02:16:01.751Z,54.37
2023-03-05T02:17:01.661Z,54.37
2023-03-05T02:18:01.739Z,54.70
2023-03-05T02:19:01.647Z,54.91
2023-03-05T02:20:01.660Z,54.16
2023-03-05T02:21:01.663Z,54.06
2023-03-05T02:22:01.646Z,53.72
2023-03-05T02:23:01.621Z,56.34
2023-03-05T02:24:02.094Z,54.02
2023-03-05T02:25:01.621Z,54.44
2023-03-05T02:26:01.638Z,54.03
2023-03-05T02:27:01.621Z,54.15
2023-03-05T02:28:01.655Z,55.54
2023-03-05T02:29:01.581Z,53.95
2023-03-05T02:30:01.634Z,54.22
2023-03-05T02:31:01.571Z,54.23
2023-03-05T02:32:01.747Z,53.87
2023-03-05T02:33:01.597Z,54.56
2023-03-05T02:34:01.577Z,54.44
2023-03-05T02:35:01.544Z,54.19
2023-03-05T02:36:01.622Z,54.07
2023-03-05T02:37:01.546Z,55.85
2023-03-05T02:38:01.546Z,54.33
2023-03-05T02:39:01.525Z,54.30
2023-03-05T02:40:01.520Z,54.04
2023-03-05T02:41:01.548Z,53.97
2023-03-05T02:42:01.580Z,54.57
2023-03-05T02:43:01.506Z,54.43
2023-03-05T02:44:01.505Z,53.93
2023-03-05T02:45:01.503Z,54.25
2023-03-05T02:46:01.538Z,53.85
2023-03-05T02:47:01.488Z,53.58
2023-03-05T02:48:01.544Z,55.65
2023-03-05T02:49:01.482Z,54.28
2023-03-05T02:50:01.489Z,53.98
2023-03-05T02:51:01.485Z,54.71
2023-03-05T02:52:01.459Z,54.74
2023-03-05T02:53:01.449Z,53.81
2023-03-05T02:54:01.486Z,54.33
2023-03-05T02:55:01.425Z,56.83
2023-03-05T02:56:01.424Z,54.20
2023-03-05T02:57:01.432Z,55.30
2023-03-05T02:58:01.403Z,54.65
2023-03-05T02:59:01.441Z,55.11
2023-03-05T03:00:01.651Z,55.79
2023-03-05T03:01:01.409Z,54.39
2023-03-05T03:02:22.365Z,54.08
2023-03-05T03:03:01.428Z,54.73
2023-03-05T03:04:01.386Z,54.29
2023-03-05T03:05:01.371Z,54.30
2023-03-05T03:06:01.423Z,56.23
2023-03-05T03:07:01.322Z,54.26
2023-03-05T03:08:01.342Z,53.89
2023-03-05T03:09:01.322Z,55.85
2023-03-05T03:10:01.306Z,53.77
2023-03-05T03:11:01.327Z,53.75
2023-03-05T03:12:01.383Z,54.12
2023-03-05T03:13:01.311Z,54.08
2023-03-05T03:14:01.292Z,53.98
2023-03-05T03:15:29.072Z,53.98
2023-03-05T03:16:01.271Z,56.63
2023-03-05T03:17:01.356Z,53.93
2023-03-05T03:18:01.302Z,53.82
2023-03-05T03:19:01.280Z,54.06
2023-03-05T03:20:01.291Z,54.14
2023-03-05T03:21:01.292Z,54.16
2023-03-05T03:22:01.270Z,54.17
2023-03-05T03:23:01.255Z,53.84
2023-03-05T03:24:01.503Z,54.14
2023-03-05T03:25:01.212Z,54.26
2023-03-05T03:26:01.223Z,54.10
2023-03-05T03:27:01.251Z,53.82
2023-03-05T03:28:01.193Z,53.71
2023-03-05T03:29:01.210Z,53.44
2023-03-05T03:30:01.219Z,53.84
2023-03-05T03:31:01.259Z,53.64
2023-03-05T03:32:01.197Z,53.49
2023-03-05T03:33:01.167Z,54.09
2023-03-05T03:34:01.175Z,54.34
2023-03-05T03:35:01.136Z,53.98
2023-03-05T03:36:01.366Z,58.77
2023-03-05T03:37:01.149Z,54.22
2023-03-05T03:38:01.150Z,54.08
2023-03-05T03:39:01.135Z,53.55
2023-03-05T03:40:01.152Z,53.78
2023-03-05T03:41:01.119Z,53.59
2023-03-05T03:42:01.129Z,54.41
2023-03-05T03:43:01.119Z,54.12
2023-03-05T03:44:01.092Z,53.87
2023-03-05T03:45:01.102Z,53.76
2023-03-05T03:46:01.143Z,54.13
2023-03-05T03:47:01.068Z,54.18
2023-03-05T03:48:01.132Z,53.92
2023-03-05T03:49:01.031Z,53.96
2023-03-05T03:50:01.052Z,54.10
2023-03-05T03:51:01.061Z,54.29
2023-03-05T03:52:01.031Z,54.00
2023-03-05T03:53:01.024Z,53.91
2023-03-05T03:54:01.090Z,53.83
2023-03-05T03:55:01.012Z,53.88
2023-03-05T03:56:01.004Z,53.99
2023-03-05T03:57:01.011Z,54.14
2023-03-05T03:58:01.011Z,54.01
2023-03-05T03:59:00.991Z,54.06
2023-03-05T04:00:01.032Z,54.04
2023-03-05T04:01:01.034Z,55.79
2023-03-05T04:02:00.966Z,54.05
2023-03-05T04:03:00.989Z,54.55
2023-03-05T04:04:01.031Z,54.61
2023-03-05T04:05:00.959Z,53.78
2023-03-05T04:06:01.000Z,53.66
2023-03-05T04:07:00.909Z,53.58
2023-03-05T04:08:00.932Z,53.73
2023-03-05T04:09:00.909Z,54.18
2023-03-05T04:10:00.935Z,56.22
2023-03-05T04:11:00.940Z,54.29
2023-03-05T04:12:00.953Z,54.24
2023-03-05T04:13:00.913Z,54.30
2023-03-05T04:14:00.914Z,54.10
2023-03-05T04:15:00.879Z,54.02
2023-03-05T04:16:00.957Z,54.27
2023-03-05T04:17:00.875Z,54.28
2023-03-05T04:18:00.941Z,54.17
2023-03-05T04:19:00.856Z,54.32
2023-03-05T04:20:00.862Z,56.29
2023-03-05T04:21:00.862Z,55.03
2023-03-05T04:22:00.825Z,57.50
2023-03-05T04:23:00.833Z,54.52
2023-03-05T04:24:00.927Z,54.25
2023-03-05T04:25:00.798Z,56.73
2023-03-05T04:26:00.830Z,54.06
2023-03-05T04:27:00.820Z,53.99
2023-03-05T04:28:00.797Z,54.00
2023-03-05T04:29:00.775Z,54.08
2023-03-05T04:30:01.026Z,55.88
2023-03-05T04:31:00.792Z,54.20
2023-03-05T04:32:00.821Z,54.50
2023-03-05T04:33:00.747Z,55.51
2023-03-05T04:34:00.773Z,56.01
2023-03-05T04:35:00.748Z,54.14
2023-03-05T04:36:00.807Z,54.25
2023-03-05T04:37:00.718Z,54.82
2023-03-05T04:38:00.703Z,54.19
2023-03-05T04:39:00.723Z,53.97
2023-03-05T04:40:00.711Z,54.10
2023-03-05T04:41:00.677Z,54.09
2023-03-05T04:42:00.740Z,54.37
2023-03-05T04:43:00.669Z,54.13
2023-03-05T04:44:00.672Z,54.07
2023-03-05T04:45:00.676Z,54.40
2023-03-05T04:46:00.683Z,54.20
2023-03-05T04:47:00.668Z,56.01
2023-03-05T04:48:00.693Z,57.46
2023-03-05T04:49:00.624Z,56.54
2023-03-05T04:50:00.635Z,55.64
2023-03-05T04:51:00.644Z,55.83
2023-03-05T04:52:00.622Z,54.29
2023-03-05T04:53:00.601Z,54.19
2023-03-05T04:54:00.685Z,54.33
2023-03-05T04:55:00.607Z,54.42
2023-03-05T04:56:00.604Z,54.57
2023-03-05T04:57:00.597Z,54.17
2023-03-05T04:58:00.585Z,54.19
2023-03-05T04:59:00.604Z,54.41
2023-03-05T05:00:00.659Z,54.81
2023-03-05T05:01:00.539Z,54.48
2023-03-05T05:02:00.615Z,54.78
2023-03-05T05:03:00.563Z,54.62
2023-03-05T05:04:00.530Z,54.17
2023-03-05T05:05:00.548Z,54.29
2023-03-05T05:06:00.574Z,54.60
2023-03-05T05:07:00.525Z,55.03
2023-03-05T05:08:00.527Z,54.80
2023-03-05T05:09:00.491Z,54.35
2023-03-05T05:10:00.477Z,54.40
2023-03-05T05:11:00.511Z,54.48
2023-03-05T05:12:00.561Z,54.35
2023-03-05T05:13:00.485Z,57.30
2023-03-05T05:14:00.474Z,54.59
2023-03-05T05:15:00.449Z,54.91
2023-03-05T05:16:00.520Z,54.71
2023-03-05T05:17:00.469Z,55.20
2023-03-05T05:18:00.492Z,54.31
2023-03-05T05:19:00.520Z,55.50
2023-03-05T05:20:00.460Z,54.32
2023-03-05T05:21:00.404Z,54.51
2023-03-05T05:22:00.408Z,54.88
2023-03-05T05:23:00.435Z,56.15
2023-03-05T05:24:00.423Z,54.71
2023-03-05T05:25:00.417Z,54.85
2023-03-05T05:26:00.412Z,54.75
2023-03-05T05:27:00.372Z,54.55
2023-03-05T05:28:00.371Z,54.55
2023-03-05T05:29:00.375Z,55.25
2023-03-05T05:30:00.787Z,54.72
2023-03-05T05:31:00.356Z,54.63
2023-03-05T05:32:00.395Z,54.00
2023-03-05T05:33:00.330Z,55.16
2023-03-05T05:34:00.315Z,56.74
2023-03-05T05:35:00.319Z,55.01
2023-03-05T05:36:00.419Z,54.86
2023-03-05T05:37:00.318Z,55.01
2023-03-05T05:38:00.299Z,56.61
2023-03-05T05:39:00.323Z,55.42
2023-03-05T05:40:00.272Z,56.69
2023-03-05T05:41:00.298Z,57.07
2023-03-05T05:42:00.320Z,58.16
2023-03-05T05:43:00.300Z,59.22
2023-03-05T05:44:43.702Z,59.31
2023-03-05T05:45:22.292Z,55.52
2023-03-05T05:46:31.826Z,56.28
2023-03-05T05:47:01.351Z,57.13
2023-03-05T05:48:00.232Z,56.68
2023-03-05T05:49:00.229Z,54.62
2023-03-05T05:50:00.220Z,54.88
2023-03-05T05:51:00.219Z,55.38
2023-03-05T05:52:00.233Z,55.65
2023-03-05T05:53:00.282Z,54.79
2023-03-05T05:54:00.194Z,54.67
2023-03-05T05:55:00.199Z,54.63
2023-03-05T05:56:12.309Z,54.65
2023-03-05T05:57:00.193Z,54.76
2023-03-05T05:58:00.181Z,55.41
2023-03-05T05:59:22.533Z,56.41
2023-03-05T06:00:01.174Z,59.78
2023-03-05T06:01:00.149Z,56.46
2023-03-05T06:02:00.226Z,56.43
2023-03-05T06:03:00.206Z,56.90
2023-03-05T06:04:00.117Z,57.36
2023-03-05T06:05:06.253Z,57.83
2023-03-05T06:06:00.140Z,56.25
2023-03-05T06:07:00.152Z,54.97
2023-03-05T06:08:00.110Z,57.74
2023-03-05T06:09:00.121Z,55.65
2023-03-05T06:10:00.078Z,54.50
2023-03-05T06:11:00.128Z,55.81
2023-03-05T06:12:00.074Z,55.30
2023-03-05T06:13:00.088Z,55.02
2023-03-05T06:14:00.092Z,55.45
2023-03-05T06:15:00.079Z,55.63
2023-03-05T06:16:00.040Z,55.85
2023-03-05T06:17:00.112Z,56.44
2023-03-05T06:18:00.042Z,56.35
2023-03-05T06:19:00.065Z,55.73
2023-03-05T06:20:00.045Z,56.09
2023-03-05T06:21:00.014Z,55.20
2023-03-05T06:22:00.013Z,55.53
2023-03-05T06:23:00.022Z,55.48
2023-03-05T06:23:59.987Z,55.27
2023-03-05T06:24:59.973Z,55.45
2023-03-05T06:25:59.967Z,54.94
2023-03-05T06:27:16.296Z,55.40
2023-03-05T06:27:59.987Z,55.55
2023-03-05T06:28:59.954Z,55.35
2023-03-05T06:29:59.971Z,55.56
2023-03-05T06:31:00.033Z,55.21
2023-03-05T06:31:59.946Z,57.01
2023-03-05T06:32:59.931Z,55.47
2023-03-05T06:33:59.924Z,55.86
2023-03-05T06:35:00.196Z,56.88
2023-03-05T06:36:14.257Z,55.27
2023-03-05T06:36:59.910Z,54.71
2023-03-05T06:37:59.889Z,54.72
2023-03-05T06:38:59.916Z,54.39
2023-03-05T06:39:59.917Z,55.33
2023-03-05T06:40:59.915Z,57.18
2023-03-05T06:41:59.867Z,55.24
2023-03-05T06:42:59.871Z,54.71
2023-03-05T06:43:59.865Z,55.39
2023-03-05T06:44:59.852Z,55.55
2023-03-05T06:45:59.906Z,56.99
2023-03-05T06:46:59.868Z,55.78
2023-03-05T06:47:59.821Z,56.02
2023-03-05T06:48:59.833Z,56.63
2023-03-05T06:49:59.817Z,54.90
2023-03-05T06:50:59.814Z,55.03
2023-03-05T06:51:59.788Z,57.30
2023-03-05T06:52:59.839Z,55.35
2023-03-05T06:53:59.793Z,55.19
2023-03-05T06:54:59.767Z,57.18
2023-03-05T06:55:59.850Z,54.67
2023-03-05T06:56:59.776Z,54.86
2023-03-05T06:57:59.770Z,54.99
2023-03-05T06:58:59.817Z,55.52
2023-03-05T06:59:59.751Z,56.97
2023-03-05T07:00:59.766Z,55.26
2023-03-05T07:01:59.750Z,55.07
2023-03-05T07:02:59.745Z,55.11
2023-03-05T07:03:59.729Z,55.14
2023-03-05T07:04:59.775Z,56.29
2023-03-05T07:05:59.719Z,54.26
2023-03-05T07:07:09.745Z,54.06
2023-03-05T07:07:59.686Z,54.58
2023-03-05T07:08:59.698Z,54.87
2023-03-05T07:09:59.691Z,54.76
2023-03-05T07:10:59.727Z,54.49
2023-03-05T07:11:59.680Z,54.71
2023-03-05T07:12:59.649Z,54.55
2023-03-05T07:13:59.647Z,54.79
2023-03-05T07:14:59.657Z,55.56
2023-03-05T07:15:59.658Z,55.43
2023-03-05T07:16:59.728Z,55.59
2023-03-05T07:17:59.629Z,55.53
2023-03-05T07:18:59.612Z,57.43
2023-03-05T07:19:59.607Z,56.45
2023-03-05T07:20:59.567Z,55.92
2023-03-05T07:21:59.587Z,57.16
2023-03-05T07:22:59.638Z,58.73
2023-03-05T07:23:59.570Z,58.46
2023-03-05T07:24:59.549Z,55.51
2023-03-05T07:25:59.599Z,55.54
2023-03-05T07:26:59.534Z,56.35
2023-03-05T07:27:59.548Z,55.50
2023-03-05T07:28:59.611Z,56.77
2023-03-05T07:29:59.552Z,56.23
2023-03-05T07:30:59.634Z,54.86
2023-03-05T07:31:59.548Z,54.76
2023-03-05T07:32:59.580Z,56.43
2023-03-05T07:33:59.499Z,54.57
2023-03-05T07:35:00.006Z,54.53
2023-03-05T07:35:59.552Z,56.56
2023-03-05T07:36:59.519Z,55.46
2023-03-05T07:37:59.488Z,55.82
2023-03-05T07:38:59.557Z,55.82
2023-03-05T07:39:59.471Z,56.14
2023-03-05T07:40:59.528Z,55.79
2023-03-05T07:41:59.456Z,57.73
2023-03-05T07:42:59.453Z,55.13
2023-03-05T07:43:59.451Z,55.55
2023-03-05T07:45:05.857Z,55.70
2023-03-05T07:45:59.463Z,56.78
2023-03-05T07:46:59.474Z,55.57
2023-03-05T07:47:59.412Z,56.47
2023-03-05T07:48:59.409Z,54.86
2023-03-05T07:49:59.392Z,55.14
2023-03-05T07:50:59.531Z,54.81
2023-03-05T07:51:59.389Z,55.45
2023-03-05T07:52:59.445Z,56.38
2023-03-05T07:53:59.426Z,56.79
2023-03-05T07:54:59.364Z,54.93
2023-03-05T07:55:59.498Z,56.91
2023-03-05T07:56:59.343Z,55.95
2023-03-05T07:57:59.351Z,57.21
2023-03-05T07:58:59.364Z,55.68
2023-03-05T07:59:59.319Z,54.91
2023-03-05T08:00:59.312Z,56.19
2023-03-05T08:01:59.318Z,56.24
2023-03-05T08:02:59.290Z,55.99
2023-03-05T08:04:09.547Z,56.72
2023-03-05T08:04:59.359Z,57.33
2023-03-05T08:05:59.311Z,56.20
2023-03-05T08:06:59.257Z,55.01
2023-03-05T08:07:59.265Z,54.55
2023-03-05T08:08:59.257Z,54.76
2023-03-05T08:09:59.275Z,55.74
2023-03-05T08:10:59.256Z,58.02
2023-03-05T08:11:59.267Z,57.04
2023-03-05T08:12:59.241Z,57.20
2023-03-05T08:13:59.231Z,55.43
2023-03-05T08:14:59.229Z,55.67
2023-03-05T08:15:59.325Z,57.53
2023-03-05T08:16:59.266Z,54.11
2023-03-05T08:17:59.207Z,54.53
2023-03-05T08:18:59.208Z,54.63
2023-03-05T08:19:59.182Z,56.10
2023-03-05T08:20:59.156Z,54.39
2023-03-05T08:21:59.171Z,56.22
2023-03-05T08:22:59.206Z,56.45
2023-03-05T08:23:59.156Z,57.14
2023-03-05T08:24:59.160Z,56.01
2023-03-05T08:25:59.217Z,57.16
2023-03-05T08:26:59.141Z,57.74
2023-03-05T08:27:59.150Z,58.68
2023-03-05T08:28:59.158Z,57.25
2023-03-05T08:29:59.144Z,56.51
2023-03-05T08:30:59.119Z,57.98
2023-03-05T08:31:59.125Z,56.76
2023-03-05T08:32:59.094Z,56.56
2023-03-05T08:33:59.092Z,56.19
2023-03-05T08:34:59.110Z,54.17
2023-03-05T08:35:59.135Z,55.17
2023-03-05T08:36:59.078Z,57.01
2023-03-05T08:37:59.183Z,54.47
2023-03-05T08:38:59.082Z,55.24
2023-03-05T08:39:59.048Z,59.32
2023-03-05T08:40:59.616Z,55.46
2023-03-05T08:41:59.046Z,56.25
2023-03-05T08:42:59.134Z,58.64
2023-03-05T08:43:59.040Z,57.22
2023-03-05T08:44:59.071Z,55.10
2023-03-05T08:45:59.018Z,59.59
2023-03-05T08:46:59.064Z,57.08
2023-03-05T08:47:59.011Z,57.41
2023-03-05T08:48:58.988Z,55.24
2023-03-05T08:49:58.974Z,56.87
2023-03-05T08:50:58.965Z,57.06
2023-03-05T08:51:58.958Z,57.69
2023-03-05T08:52:58.985Z,60.22
2023-03-05T08:53:58.948Z,59.78
2023-03-05T08:54:58.918Z,59.55
2023-03-05T08:55:58.936Z,61.28
2023-03-05T08:56:58.929Z,61.67
2023-03-05T08:57:58.900Z,61.48
2023-03-05T08:58:58.948Z,60.29
2023-03-05T08:59:58.895Z,59.34
2023-03-05T09:01:02.517Z,62.14
2023-03-05T09:02:05.045Z,59.57
2023-03-05T09:02:58.960Z,57.98
2023-03-05T09:03:58.895Z,58.69
2023-03-05T09:04:58.941Z,59.09
2023-03-05T09:05:58.862Z,59.16
2023-03-05T09:06:58.866Z,56.99
2023-03-05T09:07:58.845Z,56.54
2023-03-05T09:08:58.841Z,57.34
2023-03-05T09:09:58.830Z,55.86
2023-03-05T09:10:58.876Z,56.56
2023-03-05T09:11:58.807Z,57.98
2023-03-05T09:12:58.814Z,57.52
2023-03-05T09:13:58.814Z,56.34
2023-03-05T09:14:58.816Z,54.16
2023-03-05T09:15:58.836Z,55.86
2023-03-05T09:16:58.837Z,58.30
2023-03-05T09:17:58.782Z,59.26
2023-03-05T09:18:58.799Z,56.04
2023-03-05T09:19:58.760Z,55.65
2023-03-05T09:20:58.774Z,57.94
2023-03-05T09:21:58.754Z,55.86
2023-03-05T09:22:58.757Z,54.66
2023-03-05T09:23:58.740Z,56.63
2023-03-05T09:24:58.742Z,58.08
2023-03-05T09:25:58.725Z,55.53
2023-03-05T09:26:58.739Z,55.68
2023-03-05T09:27:58.710Z,56.46
2023-03-05T09:28:58.729Z,56.02
2023-03-05T09:29:58.704Z,57.23
2023-03-05T09:30:58.713Z,58.10
2023-03-05T09:31:58.735Z,56.94
2023-03-05T09:32:58.688Z,56.93
2023-03-05T09:33:58.694Z,57.39
2023-03-05T09:34:58.709Z,58.73
2023-03-05T09:35:58.723Z,57.07
2023-03-05T09:36:58.644Z,57.35
2023-03-05T09:37:58.629Z,54.31
2023-03-05T09:38:58.647Z,54.47
2023-03-05T09:39:58.626Z,55.87
2023-03-05T09:40:58.672Z,59.22
2023-03-05T09:41:58.632Z,56.79
2023-03-05T09:42:58.597Z,56.45
2023-03-05T09:43:58.611Z,57.60
2023-03-05T09:44:58.607Z,56.64
2023-03-05T09:45:58.646Z,56.33
2023-03-05T09:46:59.047Z,56.62
2023-03-05T09:47:58.564Z,57.81
2023-03-05T09:48:58.576Z,57.25
2023-03-05T09:49:58.560Z,58.67
2023-03-05T09:50:58.538Z,58.91
2023-03-05T09:51:58.538Z,57.63
2023-03-05T09:52:58.651Z,58.67
2023-03-05T09:53:59.489Z,59.91
2023-03-05T09:54:58.543Z,58.66
2023-03-05T09:55:58.526Z,59.36
2023-03-05T09:56:58.487Z,58.51
2023-03-05T09:57:58.518Z,58.72
2023-03-05T09:58:58.546Z,59.64
2023-03-05T09:59:58.478Z,59.56
2023-03-05T10:00:58.476Z,55.68
2023-03-05T10:01:58.482Z,56.30
2023-03-05T10:02:58.558Z,58.63
2023-03-05T10:03:58.523Z,55.47
2023-03-05T10:04:58.514Z,55.12
2023-03-05T10:05:58.453Z,56.73
2023-03-05T10:06:58.476Z,57.11
2023-03-05T10:07:58.439Z,57.26
2023-03-05T10:08:58.439Z,59.20
2023-03-05T10:09:58.410Z,57.62
2023-03-05T10:10:58.434Z,59.30
2023-03-05T10:11:58.444Z,57.09
2023-03-05T10:12:58.389Z,55.64
2023-03-05T10:13:58.393Z,57.37
2023-03-05T10:14:58.394Z,57.18
2023-03-05T10:15:58.369Z,56.22
2023-03-05T10:16:58.423Z,58.84
2023-03-05T10:17:58.353Z,55.17
2023-03-05T10:18:58.380Z,57.35
2023-03-05T10:19:58.340Z,55.69
2023-03-05T10:20:58.344Z,56.19
2023-03-05T10:21:58.319Z,55.50
2023-03-05T10:22:58.373Z,56.82
2023-03-05T10:23:58.331Z,54.69
2023-03-05T10:24:58.300Z,56.96
2023-03-05T10:25:58.302Z,59.58
2023-03-05T10:26:58.344Z,57.38
2023-03-05T10:27:58.286Z,57.91
2023-03-05T10:28:58.325Z,56.62
2023-03-05T10:29:58.304Z,55.91
2023-03-05T10:30:58.272Z,57.12
2023-03-05T10:31:58.346Z,55.08
2023-03-05T10:32:58.244Z,55.31
2023-03-05T10:33:58.246Z,57.67
2023-03-05T10:34:58.273Z,56.44
2023-03-05T10:35:58.281Z,57.46
2023-03-05T10:36:58.468Z,55.18
2023-03-05T10:37:58.216Z,56.61
2023-03-05T10:38:58.212Z,57.44
2023-03-05T10:39:58.220Z,57.42
2023-03-05T10:40:58.226Z,55.61
2023-03-05T10:41:58.194Z,55.25
2023-03-05T10:42:58.186Z,55.82
2023-03-05T10:43:58.183Z,57.29
2023-03-05T10:44:58.192Z,55.00
2023-03-05T10:45:58.233Z,57.44
2023-03-05T10:46:58.403Z,55.40
2023-03-05T10:47:58.137Z,56.45
2023-03-05T10:48:58.131Z,55.16
2023-03-05T10:49:58.148Z,57.36
2023-03-05T10:50:58.116Z,58.61
2023-03-05T10:51:58.105Z,56.17
2023-03-05T10:52:58.193Z,56.67
2023-03-05T10:53:58.140Z,58.24
2023-03-05T10:54:58.095Z,60.37
2023-03-05T10:55:58.093Z,58.01
2023-03-05T10:56:58.087Z,56.90
2023-03-05T10:57:58.075Z,57.08
2023-03-05T10:58:58.142Z,55.02
2023-03-05T10:59:58.070Z,57.30
2023-03-05T11:00:58.134Z,58.11
2023-03-05T11:01:58.042Z,59.59
2023-03-05T11:02:58.062Z,60.27
2023-03-05T11:03:58.033Z,59.10
2023-03-05T11:04:58.095Z,58.49
2023-03-05T11:05:58.065Z,55.62
2023-03-05T11:06:58.019Z,57.44
2023-03-05T11:07:58.028Z,57.35
2023-03-05T11:08:58.058Z,57.52
2023-03-05T11:09:58.031Z,58.72
2023-03-05T11:10:58.070Z,57.79
2023-03-05T11:11:57.968Z,59.19
2023-03-05T11:12:57.969Z,57.96
2023-03-05T11:13:58.026Z,57.40
2023-03-05T11:14:57.945Z,54.77
2023-03-05T11:15:57.980Z,57.16
2023-03-05T11:16:58.026Z,57.51
2023-03-05T11:17:57.957Z,56.93
2023-03-05T11:18:57.940Z,56.76
2023-03-05T11:19:57.938Z,56.07
2023-03-05T11:20:57.923Z,57.95
2023-03-05T11:21:59.808Z,58.44
2023-03-05T11:22:57.959Z,55.05
2023-03-05T11:23:57.901Z,56.64
2023-03-05T11:24:57.885Z,55.18
2023-03-05T11:25:57.937Z,56.04
2023-03-05T11:26:57.952Z,57.70
2023-03-05T11:27:57.876Z,57.69
2023-03-05T11:28:57.959Z,58.24
2023-03-05T11:29:57.868Z,55.64
2023-03-05T11:30:57.950Z,57.39
2023-03-05T11:31:57.908Z,56.84
2023-03-05T11:32:57.906Z,56.04
2023-03-05T11:33:57.976Z,55.25
2023-03-05T11:34:57.880Z,58.39
2023-03-05T11:35:57.899Z,55.79
2023-03-05T11:36:57.791Z,55.40
2023-03-05T11:37:57.809Z,59.62
2023-03-05T11:38:57.786Z,55.31
2023-03-05T11:39:57.812Z,55.85
2023-03-05T11:40:57.954Z,57.50
2023-03-05T11:41:57.770Z,54.70
2023-03-05T11:42:57.769Z,56.10
2023-03-05T11:43:57.769Z,57.27
2023-03-05T11:44:57.777Z,56.88
2023-03-05T11:45:57.754Z,58.35
2023-03-05T11:46:57.766Z,58.61
2023-03-05T11:47:57.735Z,57.05
2023-03-05T11:48:57.761Z,56.62
2023-03-05T11:49:57.709Z,57.44
2023-03-05T11:50:57.712Z,55.13
2023-03-05T11:51:57.708Z,56.76
2023-03-05T11:52:58.306Z,56.44
2023-03-05T11:53:57.766Z,57.44
2023-03-05T11:54:57.691Z,57.95
2023-03-05T11:55:57.688Z,58.44
2023-03-05T11:56:57.659Z,58.56
2023-03-05T11:57:57.681Z,55.96
2023-03-05T11:58:57.718Z,55.80
2023-03-05T11:59:57.673Z,57.67
2023-03-05T12:00:57.649Z,56.60
2023-03-05T12:01:57.650Z,58.29
2023-03-05T12:02:57.669Z,57.44
2023-03-05T12:03:57.659Z,58.86
2023-03-05T12:04:57.651Z,57.31
2023-03-05T12:05:57.620Z,60.49
2023-03-05T12:06:57.602Z,57.83
2023-03-05T12:07:57.617Z,57.95
2023-03-05T12:08:57.701Z,57.87
2023-03-05T12:09:57.594Z,54.25
2023-03-05T12:10:57.647Z,55.42
2023-03-05T12:11:57.586Z,56.02
2023-03-05T12:12:57.574Z,56.08
2023-03-05T12:13:57.577Z,55.90
2023-03-05T12:14:57.554Z,55.95
2023-03-05T12:15:57.579Z,56.81
2023-03-05T12:16:57.581Z,57.54
2023-03-05T12:17:57.540Z,58.24
2023-03-05T12:18:57.531Z,58.18
2023-03-05T12:19:57.506Z,56.69
2023-03-05T12:20:57.529Z,56.56
2023-03-05T12:21:57.518Z,55.92
2023-03-05T12:22:57.560Z,57.28
2023-03-05T12:23:57.494Z,55.49
2023-03-05T12:24:57.512Z,55.57
2023-03-05T12:25:57.492Z,57.53
2023-03-05T12:26:57.474Z,56.97
2023-03-05T12:27:57.471Z,57.27
2023-03-05T12:28:57.599Z,57.12
2023-03-05T12:29:57.486Z,55.49
2023-03-05T12:30:57.453Z,56.24
2023-03-05T12:31:57.437Z,60.29
2023-03-05T12:32:57.421Z,59.47
2023-03-05T12:33:57.990Z,57.98
2023-03-05T12:34:57.480Z,55.44
2023-03-05T12:35:57.438Z,56.10
2023-03-05T12:36:57.429Z,65.21
2023-03-05T12:37:59.545Z,60.33
2023-03-05T12:38:57.483Z,57.51
2023-03-05T12:39:57.401Z,54.44
2023-03-05T12:40:57.451Z,57.80
2023-03-05T12:41:57.379Z,59.33
2023-03-05T12:42:57.436Z,55.05
2023-03-05T12:43:57.372Z,57.41
2023-03-05T12:44:57.365Z,57.63
2023-03-05T12:45:57.368Z,57.87
2023-03-05T12:46:57.445Z,55.82
2023-03-05T12:47:57.323Z,57.25
2023-03-05T12:48:57.321Z,59.91
2023-03-05T12:49:57.348Z,57.41
2023-03-05T12:50:57.312Z,59.36
2023-03-05T12:51:57.326Z,59.26